Terminal Aerodrome Forecast
Issued by NWS Rapid City, SD

Home | Current Version | Previous Version | Text Only | Print | Product List | Glossary Off
Versions: 1 2 3 4 5 6 7 8 9 10 11 12 13 14 15 16 17

000
FTUS43 KUNR 090401 AAB
TAFRAP
TAF AMD
KRAP 090401Z 0904/0924 33015G25KT P6SM SCT250
     FM091800 33025G40KT P6SM FEW250=

USA.gov is the U.S. government's official web portal to all federal, state and local government web resources and services.